createdAt,value
2023-05-20T00:02:16.380Z,101765.73
2023-05-20T00:07:19.261Z,101762.88
2023-05-20T00:12:22.044Z,101758.84
2023-05-20T00:17:26.678Z,101758.89
2023-05-20T00:22:29.656Z,101748.16
2023-05-20T00:27:32.516Z,101744.14
2023-05-20T00:32:35.436Z,101747.06
2023-05-20T00:37:38.718Z,101740.98
2023-05-20T00:42:41.573Z,101740.49
2023-05-20T00:47:44.377Z,101743.54
2023-05-20T00:52:48.372Z,101741.43
2023-05-20T00:57:52.224Z,101742.31
2023-05-20T01:02:55.566Z,101744.15
2023-05-20T01:07:58.838Z,101745.48
2023-05-20T01:13:03.662Z,101744.80
2023-05-20T01:18:07.657Z,101749.25
2023-05-20T01:23:10.677Z,101745.45
2023-05-20T01:28:17.956Z,101750.52
2023-05-20T01:33:21.914Z,101747.13
2023-05-20T01:38:24.834Z,101744.32
2023-05-20T01:43:27.642Z,101746.47
2023-05-20T01:48:30.548Z,101744.95
2023-05-20T01:53:33.666Z,101741.66
2023-05-20T01:58:36.620Z,101734.77
2023-05-20T02:03:39.510Z,101733.99
2023-05-20T02:08:42.289Z,101730.83
2023-05-20T02:13:45.118Z,101724.91
2023-05-20T02:18:47.990Z,101728.77
2023-05-20T02:23:51.047Z,101729.92
2023-05-20T02:28:53.894Z,101733.84
2023-05-20T02:33:56.857Z,101739.80
2023-05-20T02:39:01.334Z,101734.21
2023-05-20T02:44:04.390Z,101738.57
2023-05-20T02:49:07.270Z,101736.14
2023-05-20T02:54:10.518Z,101735.07
2023-05-20T02:59:13.420Z,101739.52
2023-05-20T03:04:19.283Z,101738.77
2023-05-20T03:09:22.265Z,101738.80
2023-05-20T03:14:25.122Z,101740.68
2023-05-20T03:19:28.136Z,101742.48
2023-05-20T03:24:31.051Z,101745.42
2023-05-20T03:29:33.958Z,101745.17
2023-05-20T03:34:36.802Z,101744.92
2023-05-20T03:39:39.739Z,101749.91
2023-05-20T03:44:42.585Z,101747.35
2023-05-20T03:49:46.156Z,101743.38
2023-05-20T03:54:48.949Z,101744.61
2023-05-20T03:59:51.888Z,101751.08
2023-05-20T04:04:57.841Z,101752.35
2023-05-20T04:10:00.916Z,101748.77
2023-05-20T04:15:03.993Z,101749.24
2023-05-20T04:20:07.738Z,101746.96
2023-05-20T04:25:10.643Z,101750.65
2023-05-20T04:30:14.004Z,101749.22
2023-05-20T04:35:17.057Z,101751.45
2023-05-20T04:40:21.047Z,101754.45
2023-05-20T04:45:24.038Z,101743.84
2023-05-20T04:50:27.385Z,101745.12
2023-05-20T04:55:30.942Z,101744.22
2023-05-20T05:00:34.494Z,101743.86
2023-05-20T05:05:38.936Z,101751.80
2023-05-20T05:10:41.810Z,101752.75
2023-05-20T05:15:44.605Z,101748.95
2023-05-20T05:20:47.411Z,101750.77
2023-05-20T05:25:53.915Z,101746.61
2023-05-20T05:30:56.922Z,101749.76
2023-05-20T05:36:01.272Z,101750.77
2023-05-20T05:41:04.188Z,101754.91
2023-05-20T05:46:07.164Z,101754.63
2023-05-20T05:51:10.407Z,101754.54
2023-05-20T05:56:13.140Z,101755.95
2023-05-20T06:01:16.086Z,101765.59
2023-05-20T06:06:18.920Z,101763.55
2023-05-20T06:11:23.020Z,101760.86
2023-05-20T06:16:25.920Z,101764.08
2023-05-20T06:21:28.919Z,101759.89
2023-05-20T06:26:31.712Z,101755.40
2023-05-20T06:31:34.623Z,101758.55
2023-05-20T06:36:37.519Z,101756.50
2023-05-20T06:41:40.342Z,101755.30
2023-05-20T06:46:43.263Z,101753.23
2023-05-20T06:51:46.161Z,101747.93
2023-05-20T06:56:49.065Z,101746.08
2023-05-20T07:01:52.195Z,101741.33
2023-05-20T07:06:55.389Z,101738.85
2023-05-20T07:11:58.149Z,101738.93
2023-05-20T07:17:02.345Z,101734.35
2023-05-20T07:22:05.293Z,101729.73
2023-05-20T07:27:08.568Z,101736.01
2023-05-20T07:32:11.516Z,101731.59
2023-05-20T07:37:14.888Z,101732.52
2023-05-20T07:42:17.946Z,101726.33
2023-05-20T07:47:21.176Z,101722.29
2023-05-20T07:52:25.450Z,101710.11
2023-05-20T07:57:28.329Z,101708.73
2023-05-20T08:02:31.356Z,101705.90
2023-05-20T08:07:34.721Z,101702.30
2023-05-20T08:12:37.746Z,101697.48
2023-05-20T08:17:40.789Z,101701.27
2023-05-20T08:22:43.721Z,101700.95
2023-05-20T08:27:46.546Z,101700.58
2023-05-20T08:32:49.490Z,101701.72
2023-05-20T08:37:54.135Z,101701.39
2023-05-20T08:42:59.164Z,101699.63
2023-05-20T08:48:02.152Z,101697.59
2023-05-20T08:53:05.121Z,101692.83
2023-05-20T08:58:08.057Z,101686.61
2023-05-20T09:03:11.515Z,101688.42
2023-05-20T09:08:14.432Z,101687.53
2023-05-20T09:13:17.226Z,101690.50
2023-05-20T09:18:20.127Z,101689.23
2023-05-20T09:23:22.950Z,101681.28
2023-05-20T09:28:25.824Z,101675.25
2023-05-20T09:33:30.162Z,101672.48
2023-05-20T09:38:38.080Z,101668.21
2023-05-20T09:43:41.660Z,101669.13
2023-05-20T09:48:44.429Z,101669.42
2023-05-20T09:53:47.386Z,101670.95
2023-05-20T09:58:51.149Z,101666.23
2023-05-20T10:03:53.980Z,101669.70
2023-05-20T10:09:32.863Z,101667.33
2023-05-20T10:14:53.023Z,101662.89
2023-05-20T10:19:59.734Z,101661.41
2023-05-20T10:25:07.377Z,101658.28
2023-05-20T10:30:17.473Z,101658.77
2023-05-20T10:35:26.713Z,101662.23
2023-05-20T10:40:29.624Z,101648.09
2023-05-20T10:45:32.991Z,101638.73
2023-05-20T10:50:37.189Z,101627.90
2023-05-20T10:55:41.656Z,101618.66
2023-05-20T11:00:44.641Z,101623.36
2023-05-20T11:05:48.435Z,101619.41
2023-05-20T11:11:00.922Z,101611.65
2023-05-20T11:16:04.683Z,101598.05
2023-05-20T11:21:08.082Z,101589.20
2023-05-20T11:26:11.132Z,101585.04
2023-05-20T11:31:13.922Z,101578.31
2023-05-20T11:36:27.391Z,101575.98
2023-05-20T11:41:31.076Z,101573.42
2023-05-20T11:46:33.957Z,101580.95
2023-05-20T11:51:37.924Z,101576.15
2023-05-20T11:56:45.427Z,101574.16
2023-05-20T12:01:48.255Z,101575.96
2023-05-20T12:06:51.283Z,101574.48
2023-05-20T12:11:56.671Z,101570.58
2023-05-20T12:16:59.958Z,101564.27
2023-05-20T12:22:02.838Z,101560.96
2023-05-20T12:27:06.444Z,101562.14
2023-05-20T12:32:09.358Z,101560.58
2023-05-20T12:37:12.290Z,101555.23
2023-05-20T12:42:15.327Z,101552.95
2023-05-20T12:47:18.355Z,101544.31
2023-05-20T12:52:22.771Z,101539.15
2023-05-20T12:57:25.982Z,101536.47
2023-05-20T13:02:29.075Z,101529.81
2023-05-20T13:07:32.913Z,101521.02
2023-05-20T13:12:35.885Z,101517.02
2023-05-20T13:17:39.525Z,101506.17
2023-05-20T13:22:42.514Z,101503.31
2023-05-20T13:27:45.261Z,101505.30
2023-05-20T13:32:48.192Z,101514.41
2023-05-20T13:37:51.239Z,101513.48
2023-05-20T13:42:54.356Z,101503.27
2023-05-20T13:47:57.498Z,101503.14
2023-05-20T13:53:00.383Z,101497.75
2023-05-20T13:58:03.740Z,101488.83
2023-05-20T14:03:09.232Z,101483.06
2023-05-20T14:08:12.711Z,101476.52
2023-05-20T14:13:15.570Z,101476.87
2023-05-20T14:18:19.017Z,101471.40
2023-05-20T14:23:21.876Z,101467.73
2023-05-20T14:28:24.762Z,101461.95
2023-05-20T14:33:27.757Z,101463.98
2023-05-20T14:38:30.966Z,101461.98
2023-05-20T14:43:34.464Z,101457.73
2023-05-20T14:48:37.390Z,101459.06
2023-05-20T14:53:40.247Z,101452.27
2023-05-20T14:58:43.062Z,101449.48
2023-05-20T15:03:45.969Z,101446.05
2023-05-20T15:08:48.868Z,101443.79
2023-05-20T15:13:51.689Z,101441.00
2023-05-20T15:18:54.930Z,101431.38
2023-05-20T15:23:57.849Z,101430.21
2023-05-20T15:29:00.833Z,101431.16
2023-05-20T15:34:03.707Z,101428.45
2023-05-20T15:39:06.534Z,101428.11
2023-05-20T15:44:09.483Z,101419.29
2023-05-20T15:49:12.734Z,101422.09
2023-05-20T15:54:15.575Z,101416.98
2023-05-20T15:59:18.415Z,101418.79
2023-05-20T16:04:21.805Z,101421.46
2023-05-20T16:09:24.767Z,101424.10
2023-05-20T16:14:27.616Z,101416.59
2023-05-20T16:19:30.605Z,101414.66
2023-05-20T16:24:33.721Z,101407.90
2023-05-20T16:29:37.393Z,101414.08
2023-05-20T16:34:40.147Z,101422.53
2023-05-20T16:39:42.898Z,101425.88
2023-05-20T16:44:46.778Z,101424.79
2023-05-20T16:49:49.648Z,101428.65
2023-05-20T16:54:52.557Z,101427.73
2023-05-20T16:59:55.989Z,101427.52
2023-05-20T17:04:58.853Z,101433.03
2023-05-20T17:10:01.793Z,101435.20
2023-05-20T17:15:06.223Z,101437.59
2023-05-20T17:20:09.668Z,101436.27
2023-05-20T17:25:12.745Z,101441.53
2023-05-20T17:30:15.669Z,101444.77
2023-05-20T17:35:20.406Z,101448.63
2023-05-20T17:40:23.279Z,101447.73
2023-05-20T17:45:26.346Z,101450.96
2023-05-20T17:50:29.211Z,101454.34
2023-05-20T17:55:32.932Z,101458.70
2023-05-20T18:00:42.111Z,101457.23
2023-05-20T18:05:45.128Z,101454.90
2023-05-20T18:10:47.934Z,101459.38
2023-05-20T18:15:51.078Z,101458.40
2023-05-20T18:20:53.859Z,101458.95
2023-05-20T18:25:56.807Z,101463.53
2023-05-20T18:30:59.682Z,101471.67
2023-05-20T18:36:02.699Z,101472.50
2023-05-20T18:41:05.523Z,101472.96
2023-05-20T18:46:08.432Z,101474.25
2023-05-20T18:51:11.330Z,101475.07
2023-05-20T18:56:14.304Z,101473.21
2023-05-20T19:01:17.189Z,101476.08
2023-05-20T19:06:21.998Z,101475.98
2023-05-20T19:11:24.988Z,101474.95
2023-05-20T19:16:27.966Z,101466.73
2023-05-20T19:21:32.702Z,101470.13
2023-05-20T19:26:35.580Z,101469.54
2023-05-20T19:31:41.435Z,101469.16
2023-05-20T19:36:45.464Z,101464.70
2023-05-20T19:41:48.786Z,101455.91
2023-05-20T19:46:53.433Z,101459.90
2023-05-20T19:51:56.277Z,101457.45
2023-05-20T19:56:59.178Z,101459.63
2023-05-20T20:02:03.070Z,101462.21
2023-05-20T20:07:08.118Z,101466.45
2023-05-20T20:12:10.932Z,101473.53
2023-05-20T20:17:15.769Z,101471.63
2023-05-20T20:22:18.645Z,101473.97
2023-05-20T20:27:23.896Z,101476.51
2023-05-20T20:32:27.451Z,101480.55
2023-05-20T20:37:30.472Z,101483.45
2023-05-20T20:42:33.492Z,101483.09
2023-05-20T20:47:38.748Z,101484.34
2023-05-20T20:52:42.924Z,101478.13
2023-05-20T20:57:45.896Z,101480.21
2023-05-20T21:02:48.817Z,101473.49
2023-05-20T21:07:58.250Z,101469.40
2023-05-20T21:13:01.409Z,101466.04
2023-05-20T21:18:04.231Z,101462.05
2023-05-20T21:23:07.303Z,101461.31
2023-05-20T21:28:10.364Z,101462.19
2023-05-20T21:33:13.363Z,101455.85
2023-05-20T21:38:16.252Z,101456.58
2023-05-20T21:43:19.106Z,101459.06
2023-05-20T21:48:22.051Z,101463.48
2023-05-20T21:53:24.899Z,101467.80
2023-05-20T21:58:27.878Z,101469.20
2023-05-20T22:03:32.956Z,101469.32
2023-05-20T22:08:35.892Z,101467.05
2023-05-20T22:13:43.302Z,101468.04
2023-05-20T22:18:49.679Z,101464.81
2023-05-20T22:23:52.708Z,101462.89
2023-05-20T22:28:55.457Z,101465.02
2023-05-20T22:33:58.458Z,101463.20
2023-05-20T22:39:02.428Z,101460.00
2023-05-20T22:44:05.502Z,101454.54
2023-05-20T22:49:10.329Z,101453.43
2023-05-20T22:54:13.140Z,101452.52
2023-05-20T22:59:15.908Z,101457.16
2023-05-20T23:04:18.953Z,101453.79
2023-05-20T23:09:21.862Z,101455.92
2023-05-20T23:14:24.712Z,101458.17
2023-05-20T23:19:27.552Z,101455.69
2023-05-20T23:24:30.908Z,101457.11
2023-05-20T23:29:33.862Z,101455.84
2023-05-20T23:34:36.654Z,101454.48
2023-05-20T23:39:39.421Z,101450.73
2023-05-20T23:44:42.245Z,101452.13
2023-05-20T23:49:47.161Z,101455.61
2023-05-20T23:54:52.338Z,101451.84
2023-05-20T23:59:55.113Z,101447.41
